Time;durP1;ratioP1;P1;durP2;ratioP2;P2;SDS_P1;SDS_P2;PMS_P1;PMS_P2;Temp;Humidity;BMP_temperature;BMP_pressure;BME280_temperature;BME280_humidity;BME280_pressure;Samples;Min_cycle;Max_cycle;Signal;HPM_P1;HPM_P2
2023/04/29 00:02:09;;;;;;;12.82;6.75;;;13.50;99.90;;;;;;5077753;28;20016;-77
2023/04/29 00:04:34;;;;;;;8.02;5.68;;;13.50;99.90;;;;;;5077219;28;20028;-77
2023/04/29 00:07:00;;;;;;;8.65;5.60;;;13.50;99.90;;;;;;5077987;28;20021;-77
2023/04/29 00:09:25;;;;;;;10.68;6.97;;;13.50;99.90;;;;;;5077229;28;20032;-74
2023/04/29 00:11:51;;;;;;;15.10;7.95;;;13.50;99.90;;;;;;5076898;28;20050;-74
2023/04/29 00:14:16;;;;;;;13.48;7.03;;;13.60;99.90;;;;;;5077419;28;20107;-74
2023/04/29 00:16:42;;;;;;;12.95;8.00;;;13.50;99.90;;;;;;5076606;28;20020;-76
2023/04/29 00:19:07;;;;;;;20.35;12.48;;;13.50;99.90;;;;;;5077506;28;20016;-76
2023/04/29 00:21:33;;;;;;;24.05;11.75;;;13.50;99.90;;;;;;5076709;28;20066;-76
2023/04/29 00:23:59;;;;;;;16.00;8.23;;;13.60;99.90;;;;;;5077504;28;20025;-76
2023/04/29 00:26:24;;;;;;;15.70;7.82;;;13.60;99.90;;;;;;5077014;28;20112;-74
2023/04/29 00:28:50;;;;;;;11.43;6.03;;;13.60;99.90;;;;;;5076498;28;20046;-77
2023/04/29 00:31:16;;;;;;;12.02;6.28;;;13.60;99.90;;;;;;5077328;28;20024;-77
2023/04/29 00:33:41;;;;;;;9.05;5.45;;;13.60;99.90;;;;;;5076729;28;20038;-74
2023/04/29 00:36:08;;;;;;;8.23;5.65;;;13.50;99.90;;;;;;5076495;28;20024;-72
2023/04/29 00:38:34;;;;;;;10.32;5.45;;;13.50;99.90;;;;;;5076437;28;20017;-73
2023/04/29 00:40:59;;;;;;;8.98;5.22;;;13.50;99.90;;;;;;5076212;28;20046;-73
2023/04/29 00:43:25;;;;;;;8.30;5.10;;;13.50;99.90;;;;;;5076749;28;20070;-72
2023/04/29 00:45:51;;;;;;;8.57;4.38;;;13.40;99.90;;;;;;5076110;28;20028;-72
2023/04/29 00:48:16;;;;;;;6.93;4.47;;;13.50;99.90;;;;;;5076693;28;20039;-72
2023/04/29 00:50:42;;;;;;;6.55;4.28;;;13.50;99.90;;;;;;5077271;28;20028;-72
2023/04/29 00:53:12;;;;;;;8.27;5.07;;;13.50;99.90;;;;;;5076521;28;20052;-77
2023/04/29 00:55:40;;;;;;;7.17;4.30;;;13.50;99.90;;;;;;5059631;28;20065;-77
2023/04/29 00:58:06;;;;;;;6.28;3.90;;;13.60;99.90;;;;;;5076393;28;20060;-74
2023/04/29 01:00:32;;;;;;;6.93;3.95;;;13.70;99.90;;;;;;5076409;28;20020;-74
2023/04/29 01:02:58;;;;;;;6.60;4.18;;;13.70;99.90;;;;;;5076962;28;20016;-74
2023/04/29 01:05:24;;;;;;;5.70;4.10;;;13.70;99.90;;;;;;5076375;28;20028;-74
2023/04/29 01:08:02;;;;;;;5.47;3.80;;;13.70;99.90;;;;;;5076192;28;20032;-76
2023/04/29 01:10:34;;;;;;;6.28;4.05;;;13.70;99.90;;;;;;5076059;28;20029;-76
2023/04/29 01:13:16;;;;;;;;;;;13.70;99.90;;;;;;5077313;28;20028;-76
2023/04/29 01:16:04;;;;;;;6.20;3.75;;;13.60;99.90;;;;;;5076788;28;19912;-72
2023/04/29 01:18:42;;;;;;;6.68;4.10;;;13.60;99.90;;;;;;5076432;28;20067;-72
2023/04/29 01:21:07;;;;;;;6.60;4.07;;;13.60;99.90;;;;;;5076759;28;20031;-72
2023/04/29 01:23:33;;;;;;;6.82;4.65;;;13.70;99.90;;;;;;5075828;28;20021;-77
2023/04/29 01:25:59;;;;;;;6.15;3.47;;;13.70;99.90;;;;;;5076700;28;20031;-77
2023/04/29 01:28:55;;;;;;;9.07;3.35;;;13.70;99.90;;;;;;5076300;28;20027;-74
2023/04/29 01:31:30;;;;;;;6.50;3.70;;;13.80;99.90;;;;;;5092891;28;20024;-74
2023/04/29 01:34:22;;;;;;;5.47;3.40;;;13.80;99.90;;;;;;5076546;28;20024;-77
2023/04/29 01:36:56;;;;;;;6.13;3.50;;;13.90;99.90;;;;;;5076099;28;20027;-77
2023/04/29 01:39:35;;;;;;;6.75;3.88;;;13.80;99.90;;;;;;5093523;28;20028;-77
2023/04/29 01:42:19;;;;;;;4.57;3.45;;;13.80;99.90;;;;;;5076568;28;20016;-73
2023/04/29 01:44:48;;;;;;;5.88;3.85;;;13.80;99.90;;;;;;5075922;28;20090;-73
2023/04/29 01:47:14;;;;;;;5.57;3.30;;;13.70;99.90;;;;;;5075662;28;20119;-73
2023/04/29 01:49:39;;;;;;;9.68;4.15;;;13.70;99.90;;;;;;5076221;28;20063;-77
2023/04/29 01:52:06;;;;;;;6.60;3.88;;;13.70;99.90;;;;;;5076138;28;20021;-77
2023/04/29 01:54:35;;;;;;;5.65;4.07;;;13.70;99.90;;;;;;5083973;28;20024;-77
2023/04/29 01:57:01;;;;;;;6.75;4.20;;;13.70;99.90;;;;;;5076198;28;20025;-77
2023/04/29 01:59:27;;;;;;;6.35;4.40;;;13.80;99.90;;;;;;5079287;28;20020;-72
2023/04/29 02:01:52;;;;;;;8.00;4.43;;;13.80;99.90;;;;;;5079334;28;20027;-77
2023/04/29 02:04:18;;;;;;;6.97;4.50;;;13.70;99.90;;;;;;5079186;28;20115;-77
2023/04/29 02:06:43;;;;;;;7.18;4.93;;;13.70;99.90;;;;;;5079155;28;20140;-77
2023/04/29 02:09:09;;;;;;;6.75;4.75;;;13.70;99.90;;;;;;5079236;28;20036;-77
2023/04/29 02:11:34;;;;;;;11.55;4.88;;;13.60;99.90;;;;;;5079134;28;20077;-74
2023/04/29 02:14:00;;;;;;;7.63;4.65;;;13.60;99.90;;;;;;5079239;28;20096;-74
2023/04/29 02:16:25;;;;;;;8.07;4.88;;;13.50;99.90;;;;;;5079858;28;20040;-74
2023/04/29 02:18:51;;;;;;;7.18;4.95;;;13.60;99.90;;;;;;5079821;28;20044;-74
2023/04/29 02:21:17;;;;;;;6.43;4.72;;;13.50;99.90;;;;;;5078905;28;20070;-74
2023/04/29 02:23:43;;;;;;;8.30;5.20;;;13.50;99.90;;;;;;5078956;28;20012;-77
2023/04/29 02:26:09;;;;;;;7.78;4.68;;;13.50;99.90;;;;;;5079515;28;20094;-77
2023/04/29 02:28:35;;;;;;;8.65;5.47;;;13.40;99.90;;;;;;5078960;28;20024;-74
2023/04/29 02:31:01;;;;;;;7.25;5.28;;;13.40;99.90;;;;;;5079091;28;20112;-72
2023/04/29 02:33:27;;;;;;;9.55;5.65;;;13.40;99.90;;;;;;5079467;28;20086;-74
2023/04/29 02:35:53;;;;;;;13.50;6.65;;;13.40;99.90;;;;;;5079242;28;20021;-74
2023/04/29 02:38:18;;;;;;;9.85;5.80;;;13.40;99.90;;;;;;5078655;28;20020;-74
2023/04/29 02:40:45;;;;;;;8.40;5.57;;;13.40;99.90;;;;;;5079368;28;20032;-74
2023/04/29 02:43:11;;;;;;;10.27;5.70;;;13.40;99.90;;;;;;5079323;28;20116;-74
2023/04/29 02:45:37;;;;;;;9.82;6.25;;;13.40;99.90;;;;;;5079364;28;20024;-74
2023/04/29 02:48:03;;;;;;;10.52;6.15;;;13.40;99.90;;;;;;5078333;28;20124;-73
2023/04/29 02:50:29;;;;;;;11.90;6.40;;;13.40;99.90;;;;;;5078603;28;20024;-74
2023/04/29 02:52:55;;;;;;;13.25;7.05;;;13.30;99.90;;;;;;5078366;28;20031;-77
2023/04/29 02:55:20;;;;;;;12.65;7.28;;;13.30;99.90;;;;;;5078809;28;20024;-72
2023/04/29 02:57:46;;;;;;;14.32;7.90;;;13.30;99.90;;;;;;5078195;28;20060;-76
2023/04/29 03:00:12;;;;;;;18.02;7.68;;;13.30;99.90;;;;;;5079057;28;20021;-77
2023/04/29 03:02:37;;;;;;;14.95;7.72;;;13.20;99.90;;;;;;5078571;28;20017;-76
2023/04/29 03:05:04;;;;;;;12.40;6.82;;;13.20;99.90;;;;;;5078578;28;20027;-73
2023/04/29 03:07:30;;;;;;;14.63;6.72;;;13.30;99.90;;;;;;5078236;28;20107;-72
2023/04/29 03:09:56;;;;;;;13.90;7.22;;;13.30;99.90;;;;;;5078059;28;20044;-73
2023/04/29 03:12:21;;;;;;;14.02;7.03;;;13.10;99.90;;;;;;5077910;28;20055;-74
2023/04/29 03:14:47;;;;;;;20.25;8.05;;;13.10;99.90;;;;;;5078120;28;20024;-74
2023/04/29 03:17:14;;;;;;;15.48;7.65;;;13.10;99.90;;;;;;5078173;28;20074;-74
2023/04/29 03:19:40;;;;;;;15.68;7.88;;;13.00;99.90;;;;;;5078564;28;20112;-72
2023/04/29 03:22:09;;;;;;;15.20;7.65;;;13.10;99.90;;;;;;5078106;28;20028;-73
2023/04/29 03:24:34;;;;;;;18.13;7.82;;;13.00;99.90;;;;;;5078045;28;20052;-73
2023/04/29 03:27:00;;;;;;;15.15;7.07;;;13.10;99.90;;;;;;5077936;28;20033;-74
2023/04/29 03:29:26;;;;;;;19.35;7.28;;;13.10;99.90;;;;;;5078667;28;20028;-74
2023/04/29 03:31:53;;;;;;;14.93;7.75;;;13.00;99.90;;;;;;5077458;28;20098;-74
2023/04/29 03:34:18;;;;;;;16.45;7.95;;;13.00;99.90;;;;;;5077830;28;20024;-72
2023/04/29 03:36:44;;;;;;;18.63;8.70;;;13.00;99.90;;;;;;5078182;28;20046;-76
2023/04/29 03:39:11;;;;;;;18.73;8.60;;;13.00;99.90;;;;;;5077595;28;20055;-77
2023/04/29 03:41:37;;;;;;;16.35;7.57;;;12.90;99.90;;;;;;5077504;28;20031;-72
2023/04/29 03:44:03;;;;;;;15.38;7.47;;;12.80;99.90;;;;;;5077833;28;20021;-72
2023/04/29 03:46:28;;;;;;;17.60;7.63;;;12.80;99.90;;;;;;5077272;28;20020;-77
2023/04/29 03:48:55;;;;;;;15.18;7.80;;;12.70;99.90;;;;;;5077912;28;20025;-74
2023/04/29 03:51:22;;;;;;;15.82;6.97;;;12.70;99.90;;;;;;5077238;28;20020;-74
2023/04/29 03:53:47;;;;;;;13.23;6.50;;;12.70;99.90;;;;;;5077495;28;20096;-74
2023/04/29 03:56:13;;;;;;;15.00;6.57;;;12.70;99.90;;;;;;5076752;28;20107;-74
2023/04/29 03:58:38;;;;;;;11.93;6.60;;;12.70;99.90;;;;;;5077489;28;20017;-74
2023/04/29 04:01:04;;;;;;;10.82;5.80;;;12.70;99.90;;;;;;5077245;28;20046;-72
2023/04/29 04:03:30;;;;;;;12.15;6.65;;;12.60;99.90;;;;;;5076945;28;20016;-72
2023/04/29 04:05:55;;;;;;;12.43;6.15;;;12.70;99.90;;;;;;5076879;28;20028;-72
2023/04/29 04:08:21;;;;;;;12.55;6.70;;;12.70;99.90;;;;;;5082738;28;20021;-77
2023/04/29 04:10:46;;;;;;;12.00;6.78;;;12.70;99.90;;;;;;5081522;28;20047;-77
2023/04/29 04:13:13;;;;;;;17.20;7.78;;;12.60;99.90;;;;;;5077141;28;20017;-77
2023/04/29 04:15:39;;;;;;;12.45;5.95;;;12.60;99.90;;;;;;5076646;28;20059;-76
2023/04/29 04:18:04;;;;;;;10.52;5.95;;;12.60;99.90;;;;;;5076615;28;20029;-76
2023/04/29 04:20:30;;;;;;;12.25;6.13;;;12.70;99.90;;;;;;5076021;28;20020;-77
2023/04/29 04:22:56;;;;;;;14.68;6.38;;;12.70;99.90;;;;;;5076843;28;20027;-76
2023/04/29 04:25:22;;;;;;;12.57;6.47;;;12.80;99.90;;;;;;5076751;28;20028;-76
2023/04/29 04:27:47;;;;;;;12.30;6.47;;;12.90;99.90;;;;;;5076414;28;20035;-73
2023/04/29 04:30:13;;;;;;;14.88;7.28;;;13.00;99.90;;;;;;5076879;28;20025;-73
2023/04/29 04:32:39;;;;;;;12.27;6.95;;;13.00;99.90;;;;;;5076442;28;20024;-76
2023/04/29 04:35:06;;;;;;;14.75;6.93;;;13.10;99.90;;;;;;5076858;28;20104;-77
2023/04/29 04:37:31;;;;;;;15.48;7.35;;;13.10;99.90;;;;;;5076729;28;20025;-77
2023/04/29 04:39:57;;;;;;;12.80;6.85;;;13.10;99.90;;;;;;5077128;28;20027;-77
2023/04/29 04:42:22;;;;;;;16.20;7.28;;;13.00;99.90;;;;;;5076726;28;20114;-77
2023/04/29 04:44:48;;;;;;;14.85;6.78;;;13.10;99.90;;;;;;5076572;28;20024;-77
2023/04/29 04:47:13;;;;;;;14.75;7.05;;;13.00;99.90;;;;;;5076450;28;20032;-77
2023/04/29 04:49:39;;;;;;;12.82;6.60;;;12.90;99.90;;;;;;5076498;28;20024;-74
2023/04/29 04:52:05;;;;;;;15.23;6.85;;;12.90;99.90;;;;;;5077270;28;20028;-77
2023/04/29 04:54:30;;;;;;;13.57;7.13;;;12.90;99.90;;;;;;5077156;28;20031;-77
2023/04/29 04:56:56;;;;;;;13.88;8.43;;;12.90;99.90;;;;;;5076459;28;20028;-77
2023/04/29 04:59:21;;;;;;;15.68;6.88;;;13.00;99.90;;;;;;5076607;28;20021;-77
2023/04/29 05:01:47;;;;;;;12.68;6.93;;;13.00;99.90;;;;;;5076344;28;20096;-77
2023/04/29 05:04:14;;;;;;;13.65;6.53;;;13.00;99.90;;;;;;5076825;28;20023;-77
2023/04/29 05:06:39;;;;;;;13.55;6.88;;;13.00;99.90;;;;;;5076941;28;20024;-77
2023/04/29 05:09:05;;;;;;;11.30;6.75;;;13.10;99.90;;;;;;5076390;28;20021;-77
2023/04/29 05:11:31;;;;;;;13.02;6.72;;;13.10;99.90;;;;;;5076141;28;20025;-74
2023/04/29 05:13:57;;;;;;;10.40;6.03;;;13.20;99.90;;;;;;5076321;28;20134;-74
2023/04/29 05:16:22;;;;;;;11.55;6.55;;;13.10;99.90;;;;;;5075815;28;20028;-74
2023/04/29 05:18:48;;;;;;;14.52;7.22;;;13.10;99.90;;;;;;5076261;28;20107;-74
2023/04/29 05:21:13;;;;;;;12.50;7.32;;;13.10;99.90;;;;;;5075914;28;20016;-77
2023/04/29 05:23:39;;;;;;;13.23;7.10;;;12.90;99.90;;;;;;5075856;28;20028;-77
2023/04/29 05:26:05;;;;;;;16.52;7.43;;;13.00;99.90;;;;;;5076895;28;20029;-74
2023/04/29 05:28:30;;;;;;;19.48;6.70;;;13.00;99.90;;;;;;5076171;28;20025;-76
2023/04/29 05:30:56;;;;;;;12.25;6.65;;;13.00;99.90;;;;;;5076520;28;20039;-72
2023/04/29 05:33:21;;;;;;;13.23;6.13;;;12.90;99.90;;;;;;5079852;28;20032;-72
2023/04/29 05:35:47;;;;;;;13.98;6.32;;;12.90;99.90;;;;;;5079688;28;20035;-72
2023/04/29 05:38:12;;;;;;;13.20;6.75;;;13.00;99.90;;;;;;5080059;28;20017;-72
2023/04/29 05:40:39;;;;;;;12.52;6.72;;;13.10;99.90;;;;;;5079560;28;20027;-74
2023/04/29 05:43:04;;;;;;;12.15;6.40;;;13.10;99.90;;;;;;5079727;28;20059;-74
2023/04/29 05:45:30;;;;;;;11.88;6.00;;;13.10;99.90;;;;;;5079548;28;20044;-76
2023/04/29 05:47:56;;;;;;;12.13;6.03;;;13.10;99.90;;;;;;5079693;28;20033;-77
2023/04/29 05:50:22;;;;;;;11.07;6.22;;;13.10;99.90;;;;;;5079776;28;20101;-76
2023/04/29 05:52:47;;;;;;;11.35;5.95;;;13.00;99.90;;;;;;5079653;28;20052;-76
2023/04/29 05:55:13;;;;;;;14.57;6.40;;;13.10;99.90;;;;;;5079352;28;20063;-76
2023/04/29 05:57:39;;;;;;;12.45;5.97;;;13.10;99.90;;;;;;5079303;28;20027;-77
2023/04/29 06:00:05;;;;;;;11.18;6.03;;;13.00;99.90;;;;;;5080477;28;20081;-77
2023/04/29 06:02:31;;;;;;;11.15;5.88;;;13.10;99.90;;;;;;5080417;28;20021;-77
2023/04/29 06:04:57;;;;;;;10.75;5.88;;;13.00;99.90;;;;;;5079344;28;20105;-74
2023/04/29 06:07:23;;;;;;;11.60;5.55;;;13.10;99.90;;;;;;5079441;28;20031;-74
2023/04/29 06:09:49;;;;;;;11.32;6.20;;;13.00;99.90;;;;;;5079211;28;20116;-74
2023/04/29 06:12:15;;;;;;;15.45;6.35;;;13.00;99.90;;;;;;5079454;28;20025;-76
2023/04/29 06:14:40;;;;;;;11.35;5.95;;;13.00;99.90;;;;;;5078915;28;20035;-76
2023/04/29 06:17:06;;;;;;;10.80;6.45;;;13.00;99.90;;;;;;5079063;28;20020;-72
2023/04/29 06:19:32;;;;;;;10.40;5.65;;;13.00;99.90;;;;;;5079893;28;20033;-74
2023/04/29 06:21:58;;;;;;;9.43;5.53;;;13.00;99.90;;;;;;5079182;28;20031;-74
2023/04/29 06:24:24;;;;;;;12.13;6.18;;;13.00;99.90;;;;;;5079151;28;20108;-72
2023/04/29 06:26:49;;;;;;;12.68;6.60;;;13.10;99.90;;;;;;5079063;28;20108;-76
2023/04/29 06:29:15;;;;;;;10.57;6.18;;;13.10;99.90;;;;;;5079085;28;20047;-76
2023/04/29 06:31:40;;;;;;;8.70;4.93;;;13.10;99.90;;;;;;5079093;28;20020;-74
2023/04/29 06:34:06;;;;;;;10.57;5.40;;;13.00;99.90;;;;;;5079040;28;20059;-74
2023/04/29 06:36:31;;;;;;;9.15;5.40;;;13.00;99.90;;;;;;5078480;28;20035;-74
2023/04/29 06:38:57;;;;;;;11.98;5.68;;;12.90;99.90;;;;;;5079035;28;20023;-77
2023/04/29 06:41:23;;;;;;;8.55;5.00;;;12.90;99.90;;;;;;5078772;28;20048;-77
2023/04/29 06:43:48;;;;;;;9.70;5.22;;;12.90;99.90;;;;;;5078632;28;20027;-77
2023/04/29 06:46:14;;;;;;;10.35;5.45;;;12.90;99.90;;;;;;5078664;28;20047;-76
2023/04/29 06:48:39;;;;;;;8.48;5.20;;;13.00;99.90;;;;;;5079188;28;20021;-72
2023/04/29 06:51:05;;;;;;;9.38;5.00;;;13.00;99.90;;;;;;5078388;28;20025;-73
2023/04/29 06:53:30;;;;;;;10.15;5.20;;;13.10;99.90;;;;;;5078241;28;20031;-72
2023/04/29 06:55:56;;;;;;;8.18;4.68;;;13.10;99.90;;;;;;5078455;28;20044;-72
2023/04/29 06:58:21;;;;;;;8.32;5.35;;;13.10;99.90;;;;;;5079116;28;20024;-72
2023/04/29 07:00:49;;;;;;;11.98;5.32;;;13.10;99.90;;;;;;5079238;28;20024;-72
2023/04/29 07:03:16;;;;;;;11.98;6.15;;;13.10;99.90;;;;;;5078572;28;20116;-72
2023/04/29 07:05:44;;;;;;;12.60;6.07;;;13.00;99.90;;;;;;5078432;28;20025;-72
2023/04/29 07:08:11;;;;;;;10.10;6.03;;;13.20;99.90;;;;;;5078248;28;20029;-72
2023/04/29 07:10:37;;;;;;;12.77;6.57;;;13.10;99.90;;;;;;5078831;28;20047;-72
2023/04/29 07:13:03;;;;;;;14.00;6.60;;;13.10;99.90;;;;;;5078345;28;20024;-72
2023/04/29 07:15:29;;;;;;;12.65;6.80;;;13.10;99.90;;;;;;5077926;28;20024;-77
2023/04/29 07:17:55;;;;;;;16.17;7.07;;;13.10;99.90;;;;;;5077781;28;20024;-77
2023/04/29 07:20:21;;;;;;;20.85;7.70;;;13.10;99.90;;;;;;5078141;28;20020;-77
2023/04/29 07:22:47;;;;;;;18.05;7.13;;;13.00;99.90;;;;;;5077935;28;20032;-77
2023/04/29 07:25:13;;;;;;;12.23;6.45;;;13.00;99.90;;;;;;5077707;28;20031;-77
2023/04/29 07:27:39;;;;;;;13.55;6.90;;;13.00;99.90;;;;;;5078146;28;20028;-77
2023/04/29 07:30:05;;;;;;;11.40;6.65;;;12.90;99.90;;;;;;5077670;28;20020;-76
2023/04/29 07:32:31;;;;;;;15.07;6.70;;;13.00;99.90;;;;;;5077435;28;20028;-77
2023/04/29 07:34:57;;;;;;;12.73;6.40;;;13.20;99.90;;;;;;5077811;28;20024;-78
2023/04/29 07:37:23;;;;;;;11.45;5.93;;;13.20;99.90;;;;;;5077835;28;20028;-74
2023/04/29 07:39:49;;;;;;;12.10;6.20;;;13.20;99.90;;;;;;5077745;28;20024;-75
2023/04/29 07:42:14;;;;;;;13.63;6.55;;;13.10;99.90;;;;;;5077748;28;20020;-75
2023/04/29 07:44:40;;;;;;;11.52;6.32;;;13.10;99.90;;;;;;5078452;28;20021;-77
2023/04/29 07:47:06;;;;;;;10.77;5.75;;;13.10;99.90;;;;;;5077709;28;20032;-70
2023/04/29 07:49:31;;;;;;;10.45;6.00;;;13.20;99.90;;;;;;5077910;28;20043;-75
2023/04/29 07:51:57;;;;;;;14.48;7.28;;;13.20;99.90;;;;;;5078432;28;20030;-74
2023/04/29 07:54:22;;;;;;;13.70;6.40;;;13.10;99.90;;;;;;5076640;28;20105;-73
2023/04/29 07:56:48;;;;;;;12.23;6.00;;;13.10;99.90;;;;;;5076642;28;20024;-73
2023/04/29 07:59:14;;;;;;;10.95;6.25;;;13.10;99.90;;;;;;5077535;28;20028;-73
2023/04/29 08:01:40;;;;;;;10.07;5.78;;;13.20;99.90;;;;;;5077767;28;20024;-74
2023/04/29 08:04:06;;;;;;;9.73;5.60;;;13.30;99.90;;;;;;5077067;28;20032;-75
2023/04/29 08:06:32;;;;;;;9.10;5.25;;;13.30;99.90;;;;;;5077017;28;20029;-74
2023/04/29 08:08:58;;;;;;;9.25;5.13;;;13.50;99.90;;;;;;5077114;28;20103;-73
2023/04/29 08:11:25;;;;;;;8.63;4.68;;;13.50;99.90;;;;;;5077082;28;20140;-73
2023/04/29 08:13:51;;;;;;;10.60;5.43;;;13.60;99.90;;;;;;5077256;28;20023;-73
2023/04/29 08:16:16;;;;;;;11.00;5.82;;;13.60;99.90;;;;;;5076614;28;20028;-73
2023/04/29 08:18:42;;;;;;;9.52;5.13;;;13.60;99.90;;;;;;5076586;28;20043;-74
2023/04/29 08:21:10;;;;;;;8.48;4.18;;;13.70;99.90;;;;;;5077455;28;20021;-74
2023/04/29 08:23:36;;;;;;;8.23;5.18;;;13.70;99.90;;;;;;5076945;28;20095;-74
2023/04/29 08:26:02;;;;;;;8.45;4.68;;;13.70;99.90;;;;;;5076978;28;20029;-73
2023/04/29 08:28:27;;;;;;;8.20;4.55;;;14.00;99.90;;;;;;5077520;28;20024;-75
2023/04/29 08:30:54;;;;;;;7.10;3.60;;;14.10;99.90;;;;;;5077068;28;20031;-74
2023/04/29 08:33:20;;;;;;;5.13;3.00;;;13.90;99.90;;;;;;5076889;28;20134;-74
2023/04/29 08:35:45;;;;;;;4.80;3.10;;;13.80;99.90;;;;;;5077125;28;20032;-74
2023/04/29 08:38:11;;;;;;;5.65;2.78;;;14.00;99.90;;;;;;5076900;28;20029;-74
2023/04/29 08:40:44;;;;;;;5.43;3.30;;;14.10;99.90;;;;;;5076439;28;20028;-74
2023/04/29 08:43:12;;;;;;;5.20;3.10;;;14.00;99.90;;;;;;5076319;28;20025;-73
2023/04/29 08:45:38;;;;;;;6.53;2.70;;;14.10;99.90;;;;;;5076762;28;20054;-74
2023/04/29 08:48:06;;;;;;;5.68;3.47;;;14.10;99.90;;;;;;5076341;28;20094;-74
2023/04/29 08:50:38;;;;;;;5.55;2.90;;;14.10;99.90;;;;;;5076580;28;20037;-74
2023/04/29 08:53:08;;;;;;;4.80;3.00;;;14.20;99.90;;;;;;5077278;28;20021;-74
2023/04/29 08:55:36;;;;;;;3.83;2.65;;;14.50;99.90;;;;;;5076375;28;20052;-74
2023/04/29 08:58:02;;;;;;;6.32;2.13;;;14.60;99.90;;;;;;5076138;28;20016;-74
2023/04/29 09:00:31;;;;;;;4.20;2.80;;;14.80;99.90;;;;;;5076716;28;20067;-74
2023/04/29 09:02:59;;;;;;;4.82;2.40;;;14.90;99.90;;;;;;5076431;28;20017;-74
2023/04/29 09:05:25;;;;;;;2.30;1.40;;;14.90;99.90;;;;;;5077032;28;20052;-74
2023/04/29 09:07:52;;;;;;;2.80;1.90;;;14.70;99.90;;;;;;5075876;28;20032;-74
2023/04/29 09:10:18;;;;;;;2.83;1.70;;;14.70;99.90;;;;;;5076430;28;20039;-74
2023/04/29 09:12:45;;;;;;;1.92;1.50;;;14.60;99.90;;;;;;5076308;28;20075;-74
2023/04/29 09:15:10;;;;;;;2.70;1.40;;;14.40;99.90;;;;;;5076250;28;20021;-74
2023/04/29 09:17:44;;;;;;;3.47;1.45;;;14.40;99.90;;;;;;5076345;28;20021;-74
2023/04/29 09:20:18;;;;;;;3.38;1.73;;;14.40;99.90;;;;;;5092795;28;20071;-74
2023/04/29 09:22:47;;;;;;;3.38;2.10;;;14.40;99.90;;;;;;5092755;28;20021;-74
2023/04/29 09:25:14;;;;;;;2.38;1.77;;;14.50;99.90;;;;;;5075849;28;20024;-74
2023/04/29 09:27:39;;;;;;;1.98;1.58;;;14.80;99.90;;;;;;5075790;28;20025;-74
2023/04/29 09:30:06;;;;;;;2.88;1.45;;;14.90;99.90;;;;;;5075690;28;20039;-74
2023/04/29 09:32:31;;;;;;;2.15;1.58;;;14.80;99.90;;;;;;5075766;28;20028;-74
2023/04/29 09:34:57;;;;;;;2.20;1.60;;;14.80;99.90;;;;;;5075839;28;20078;-74
2023/04/29 09:37:25;;;;;;;3.17;1.77;;;14.70;99.90;;;;;;5075877;28;20021;-74
2023/04/29 09:39:51;;;;;;;4.78;1.40;;;14.60;99.90;;;;;;5076976;28;20027;-74
2023/04/29 09:42:16;;;;;;;2.33;1.30;;;14.50;99.90;;;;;;5076707;28;20024;-74
2023/04/29 09:44:43;;;;;;;2.03;1.55;;;14.50;99.90;;;;;;5075790;28;20020;-74
2023/04/29 09:47:09;;;;;;;1.98;1.60;;;14.40;99.90;;;;;;5076537;28;20115;-74
2023/04/29 09:49:44;;;;;;;3.47;1.92;;;14.40;99.90;;;;;;5076640;28;20028;-74
2023/04/29 09:52:15;;;;;;;1.98;1.20;;;14.40;99.90;;;;;;5075770;28;20044;-74
2023/04/29 09:54:42;;;;;;;1.98;1.30;;;14.30;99.90;;;;;;5075963;28;20091;-74
2023/04/29 09:57:09;;;;;;;1.80;0.93;;;14.30;99.90;;;;;;5076343;28;20052;-74
2023/04/29 09:59:37;;;;;;;2.20;0.90;;;14.30;99.90;;;;;;5076537;28;20078;-74
2023/04/29 10:02:24;;;;;;;1.65;1.10;;;14.30;99.90;;;;;;5075548;28;20021;-74
2023/04/29 10:04:56;;;;;;;1.88;0.85;;;14.30;99.90;;;;;;5076352;28;20025;-73
2023/04/29 10:07:22;;;;;;;1.42;0.80;;;14.40;99.90;;;;;;5075461;28;20032;-74
2023/04/29 10:09:47;;;;;;;2.78;0.95;;;14.40;99.90;;;;;;5076002;28;20021;-73
2023/04/29 10:12:18;;;;;;;1.05;0.90;;;14.50;99.90;;;;;;5075961;28;20090;-73
2023/04/29 10:14:53;;;;;;;1.38;0.90;;;14.50;99.90;;;;;;5076238;28;20027;-73
2023/04/29 10:17:51;;;;;;;1.38;0.80;;;14.50;99.90;;;;;;5092721;28;20029;-73
2023/04/29 10:20:24;;;;;;;1.35;0.80;;;14.60;99.90;;;;;;5041684;28;20041;-73
2023/04/29 10:22:55;;;;;;;3.30;1.00;;;14.70;99.90;;;;;;5058535;28;20028;-73
2023/04/29 10:25:22;;;;;;;1.67;0.87;;;14.80;99.90;;;;;;5058546;28;20037;-73
2023/04/29 10:27:49;;;;;;;1.55;0.98;;;14.80;99.90;;;;;;5041571;28;20021;-73
2023/04/29 10:30:16;;;;;;;1.75;1.10;;;14.70;99.90;;;;;;5058286;28;20060;-73
2023/04/29 10:32:46;;;;;;;0.77;0.77;;;14.70;99.90;;;;;;5058011;28;20024;-73
2023/04/29 10:35:14;;;;;;;1.92;0.93;;;14.70;99.90;;;;;;5058007;28;20033;-74
2023/04/29 10:37:45;;;;;;;1.05;0.88;;;14.60;99.90;;;;;;5041417;28;20029;-73
2023/04/29 10:40:46;;;;;;;1.67;1.30;;;14.60;99.90;;;;;;5041473;28;20025;-73
2023/04/29 10:43:12;;;;;;;0.80;0.80;;;14.60;99.90;;;;;;4982631;28;20134;-73
2023/04/29 10:45:38;;;;;;;1.23;0.88;;;14.60;99.90;;;;;;4998631;28;20109;-73
2023/04/29 10:48:09;;;;;;;1.92;1.00;;;14.70;99.90;;;;;;4998374;28;20146;-73
2023/04/29 10:50:47;;;;;;;3.55;0.90;;;14.70;99.90;;;;;;4998632;28;20034;-73
2023/04/29 10:53:18;;;;;;;1.10;0.75;;;14.70;99.90;;;;;;4998871;28;20038;-73
2023/04/29 10:55:47;;;;;;;1.10;0.80;;;14.70;99.90;;;;;;4981942;28;20042;-73
2023/04/29 10:58:37;;;;;;;1.00;0.90;;;14.70;99.90;;;;;;4981966;28;20129;-73
2023/04/29 11:01:03;;;;;;;1.67;0.75;;;14.80;99.90;;;;;;4998287;28;20126;-73
2023/04/29 11:03:46;;;;;;;1.15;0.68;;;14.80;99.90;;;;;;4981972;28;20031;-73
2023/04/29 11:06:12;;;;;;;1.63;1.40;;;15.00;99.90;;;;;;4981962;28;20033;-73
2023/04/29 11:08:41;;;;;;;2.05;1.40;;;15.00;99.90;;;;;;4981807;28;20120;-73
2023/04/29 11:11:07;;;;;;;1.80;1.02;;;15.10;99.90;;;;;;4998345;28;20034;-73
2023/04/29 11:13:37;;;;;;;1.65;1.05;;;15.00;99.90;;;;;;4982309;28;20081;-73
2023/04/29 11:16:10;;;;;;;1.40;1.20;;;15.00;99.90;;;;;;4986034;28;20031;-73
2023/04/29 11:19:02;;;;;;;2.22;1.25;;;15.00;99.90;;;;;;5077827;28;20028;-73
2023/04/29 11:21:28;;;;;;;1.42;1.08;;;15.20;99.90;;;;;;5095484;28;20029;-73
2023/04/29 11:23:54;;;;;;;2.50;1.30;;;15.20;99.90;;;;;;5077862;28;20071;-73
2023/04/29 11:26:20;;;;;;;1.10;1.00;;;15.10;99.90;;;;;;5077636;28;20125;-73
2023/04/29 11:28:47;;;;;;;1.48;0.90;;;15.20;99.90;;;;;;5077833;28;20059;-73
2023/04/29 11:31:12;;;;;;;1.42;1.10;;;15.20;99.90;;;;;;5078319;28;20104;-73
2023/04/29 11:33:38;;;;;;;1.05;0.88;;;15.40;99.90;;;;;;5077505;28;20115;-73
2023/04/29 11:36:03;;;;;;;0.90;0.80;;;15.40;99.90;;;;;;5094229;28;20056;-73
2023/04/29 11:38:29;;;;;;;1.25;0.80;;;15.50;99.90;;;;;;5077347;28;20017;-73
2023/04/29 11:40:56;;;;;;;3.75;1.45;;;15.50;99.90;;;;;;5077658;28;20029;-74
2023/04/29 11:43:23;;;;;;;2.08;1.20;;;15.40;99.90;;;;;;5077367;28;20111;-73
2023/04/29 11:45:50;;;;;;;2.05;1.40;;;15.30;99.90;;;;;;5077380;28;20020;-73
2023/04/29 11:48:23;;;;;;;2.03;1.73;;;15.20;99.90;;;;;;5078319;28;20040;-73
2023/04/29 11:51:00;;;;;;;2.92;1.48;;;15.10;99.90;;;;;;5078322;28;20111;-73
2023/04/29 11:53:28;;;;;;;3.30;1.90;;;15.00;99.90;;;;;;5094091;28;20034;-74
2023/04/29 11:55:54;;;;;;;2.80;1.40;;;15.00;99.90;;;;;;5076947;28;20119;-74
2023/04/29 11:58:21;;;;;;;2.78;1.65;;;15.00;99.90;;;;;;5077449;28;20043;-74
2023/04/29 12:00:47;;;;;;;2.42;1.35;;;15.10;99.90;;;;;;5078376;28;20090;-74
2023/04/29 12:03:18;;;;;;;2.10;1.50;;;15.10;99.90;;;;;;5077262;28;20032;-74
2023/04/29 12:05:54;;;;;;;2.08;1.30;;;15.10;99.90;;;;;;5077074;28;20025;-74
2023/04/29 12:08:24;;;;;;;2.40;1.75;;;15.10;99.90;;;;;;5077139;28;20029;-74
2023/04/29 12:10:50;;;;;;;11.40;2.50;;;15.20;99.90;;;;;;5077664;28;20082;-74
2023/04/29 12:13:17;;;;;;;3.38;2.35;;;15.20;99.90;;;;;;5077481;28;20024;-74
2023/04/29 12:15:45;;;;;;;4.88;2.40;;;15.30;99.90;;;;;;5077542;28;20028;-74
2023/04/29 12:18:11;;;;;;;5.38;2.10;;;15.40;99.90;;;;;;5078077;28;20024;-74
2023/04/29 12:20:38;;;;;;;3.72;1.83;;;15.30;99.90;;;;;;5076941;28;20020;-74
2023/04/29 12:23:15;;;;;;;3.55;2.53;;;15.10;99.90;;;;;;5093593;28;20016;-74
2023/04/29 12:25:41;;;;;;;98.55;24.92;;;15.10;99.90;;;;;;5093628;28;20043;-74
2023/04/29 12:28:13;;;;;;;24.33;7.50;;;15.10;99.90;;;;;;5076931;28;20028;-74
2023/04/29 12:30:38;;;;;;;7.18;3.05;;;15.10;99.90;;;;;;5076518;28;20029;-74
2023/04/29 12:33:08;;;;;;;16.13;5.63;;;15.10;99.90;;;;;;5093298;28;20059;-74
2023/04/29 12:35:34;;;;;;;21.95;7.32;;;15.10;99.90;;;;;;5077811;28;20043;-74
2023/04/29 12:38:00;;;;;;;5.80;2.40;;;15.10;99.90;;;;;;5076333;28;20017;-74
2023/04/29 12:40:26;;;;;;;4.18;1.25;;;15.20;99.90;;;;;;5093443;28;20094;-74
2023/04/29 12:42:54;;;;;;;6.15;1.77;;;15.20;99.90;;;;;;5075955;28;20020;-74
2023/04/29 12:45:31;;;;;;;5.43;1.27;;;15.10;99.90;;;;;;5076621;28;20024;-74